Reading, PA

3:51 AM EDT on April 29, 2017 (GMT -0400)
Greenfields | | Change Station

Elev 250 ft 40.37 °N, 75.96 °W | Updated 23 seconds ago

Light Thunderstorms and Rain
Light Thunderstorm Rain
62.5 °F
Feels Like 62.5 °F
N
1.0
Wind Variable Wind from North
Gusts 1.0 mph

Today
High -- | Low -- °F
--% Chance of Precip.
Yesterday
High -- | Low -- °F
Precip. -- in
Pressure 30.00 in
Visibility 10.0 miles
Clouds Scattered Clouds 2600 ft
Mostly Cloudy 4800 ft
Overcast 10000 ft
Dew Point 60 °F
Humidity 91%
Rainfall 0.23 in
Snow Depth Not available.
6:05 AM 7:57 PM
Waxing Crescent, 12% visible
SPECI KRDG 290712Z AUTO 03003KT 10SM -TSRA SCT026 BKN048 OVC100 18/14 A3000 RMK AO2 LTG DSNT SE AND W TSB06 P0000 T01830144
Pressure 30.00 in
Visibility 10.0 miles
Clouds Scattered Clouds 2600 ft
Mostly Cloudy 4800 ft
Overcast 10000 ft
Dew Point 60 °F
Humidity 91%
Rainfall 0.23 in
Snow Depth Not available.
6:05 AM 7:57 PM
Waxing Crescent, 12% visible
SPECI KRDG 290712Z AUTO 03003KT 10SM -TSRA SCT026 BKN048 OVC100 18/14 A3000 RMK AO2 LTG DSNT SE AND W TSB06 P0000 T01830144

Get Severe Weather Alerts

Thanks for signing up!

Be on the lookout for a verification email in your inbox.

You'll start receiving the daily forecast at 8 AM.

×

10-Day Weather Forecast

Almanac

Astronomy

Apr. 29, 2017 Rise Set
Actual Time
Civil Twilight
Nautical Twilight
Astronomical Twilight
Moon
Length of Visible Light
Length of Day
Tomorrow will be .
, % of the Moon is Illuminated

Today's Extremes

State Highs State Lows

Community

WunderPhotos

WunderBlog® & News

Nearby

Air Quality

  Air Quality AQ Index Pollutant
Not available.

Snow Depth

Station Depth Elevation

Earthquake Activity

City Distance Mag. Time & Date
Minimum magnitude displayed is 2.5.

Coastal Water Temperatures

Place Temperature

Stations

Nearby Weather Stations

Station Location Temp. Windchill Dew Point Humidity Wind Precip. Elev Updated Type
                   

Watches & Warnings

There are currently no watches in effect.